createdAt,value
2022-08-26T00:01:15.541Z,21.80
2022-08-26T00:03:42.150Z,21.80
2022-08-26T00:06:08.956Z,21.90
2022-08-26T00:08:41.780Z,22.00
2022-08-26T00:11:08.363Z,21.80
2022-08-26T00:13:35.985Z,21.90
2022-08-26T00:16:03.749Z,21.90
2022-08-26T00:18:30.991Z,21.70
2022-08-26T00:21:06.470Z,21.50
2022-08-26T00:23:33.305Z,21.70
2022-08-26T00:25:59.915Z,21.70
2022-08-26T00:28:28.123Z,21.80
2022-08-26T00:30:55.015Z,21.80
2022-08-26T00:33:22.045Z,21.70
2022-08-26T00:35:48.707Z,21.90
2022-08-26T00:38:15.343Z,21.80
2022-08-26T00:40:50.252Z,21.70
2022-08-26T00:43:17.815Z,21.80
2022-08-26T00:45:52.649Z,21.70
2022-08-26T00:48:20.978Z,21.60
2022-08-26T00:50:50.342Z,21.60
2022-08-26T00:53:24.162Z,21.70
2022-08-26T00:55:54.763Z,21.80
2022-08-26T00:58:22.795Z,21.60
2022-08-26T01:00:49.354Z,21.80
2022-08-26T01:03:16.947Z,21.70
2022-08-26T01:05:43.659Z,21.70
2022-08-26T01:08:10.181Z,21.50
2022-08-26T01:10:37.162Z,21.70
2022-08-26T01:13:06.543Z,21.70
2022-08-26T01:15:35.972Z,21.60
2022-08-26T01:18:04.251Z,21.70
2022-08-26T01:20:49.266Z,21.80
2022-08-26T01:23:15.831Z,21.60
2022-08-26T01:25:44.909Z,21.70
2022-08-26T01:28:16.582Z,21.70
2022-08-26T01:30:45.314Z,21.60
2022-08-26T01:33:15.050Z,21.80
2022-08-26T01:35:42.784Z,21.80
2022-08-26T01:38:09.749Z,21.80
2022-08-26T01:40:37.520Z,21.80
2022-08-26T01:43:06.426Z,21.60
2022-08-26T01:45:34.449Z,21.50
2022-08-26T01:48:03.043Z,21.60
2022-08-26T01:50:34.625Z,21.50
2022-08-26T01:53:03.210Z,21.40
2022-08-26T01:55:32.855Z,21.60
2022-08-26T01:58:01.584Z,21.60
2022-08-26T02:00:28.360Z,21.50
2022-08-26T02:03:16.085Z,21.40
2022-08-26T02:05:51.508Z,21.50
2022-08-26T02:08:22.714Z,21.60
2022-08-26T02:10:51.728Z,21.50
2022-08-26T02:13:21.364Z,21.60
2022-08-26T02:15:49.266Z,21.50
2022-08-26T02:18:16.944Z,21.50
2022-08-26T02:20:44.108Z,21.50
2022-08-26T02:23:10.638Z,21.60
2022-08-26T02:25:49.353Z,21.50
2022-08-26T02:28:17.557Z,21.40
2022-08-26T02:30:47.062Z,21.40
2022-08-26T02:33:13.691Z,21.40
2022-08-26T02:35:40.212Z,21.50
2022-08-26T02:38:09.959Z,21.50
2022-08-26T02:40:40.404Z,21.50
2022-08-26T02:43:08.624Z,21.60
2022-08-26T02:45:35.620Z,21.50
2022-08-26T02:48:09.111Z,21.30
2022-08-26T02:50:37.318Z,21.40
2022-08-26T02:53:04.611Z,21.30
2022-08-26T02:55:32.613Z,21.40
2022-08-26T02:58:00.111Z,21.40
2022-08-26T03:00:27.393Z,21.40
2022-08-26T03:02:54.384Z,21.30
2022-08-26T03:05:22.070Z,21.30
2022-08-26T03:07:51.055Z,21.30
2022-08-26T03:10:17.681Z,21.00
2022-08-26T03:12:45.271Z,21.00
2022-08-26T03:15:17.436Z,21.10
2022-08-26T03:17:45.543Z,21.00
2022-08-26T03:20:13.656Z,21.00
2022-08-26T03:22:42.312Z,21.10
2022-08-26T03:25:10.072Z,21.30
2022-08-26T03:27:36.653Z,21.20
2022-08-26T03:30:22.519Z,21.10
2022-08-26T03:32:49.298Z,21.20
2022-08-26T03:35:16.579Z,21.20
2022-08-26T03:37:43.472Z,21.30
2022-08-26T03:40:11.431Z,21.30
2022-08-26T03:42:39.213Z,21.40
2022-08-26T03:45:07.422Z,21.10
2022-08-26T03:47:33.933Z,21.20
2022-08-26T03:50:00.772Z,21.30
2022-08-26T03:52:27.330Z,21.30
2022-08-26T03:54:53.846Z,21.30
2022-08-26T03:57:20.683Z,21.20
2022-08-26T03:59:49.182Z,21.20
2022-08-26T04:02:15.910Z,21.40
2022-08-26T04:04:43.322Z,21.40
2022-08-26T04:07:09.878Z,21.40
2022-08-26T04:09:36.674Z,21.50
2022-08-26T04:12:04.250Z,21.50
2022-08-26T04:14:32.174Z,21.40
2022-08-26T04:16:58.763Z,21.40
2022-08-26T04:19:25.779Z,21.30
2022-08-26T04:21:53.147Z,21.30
2022-08-26T04:24:21.553Z,21.20
2022-08-26T04:26:48.525Z,21.30
2022-08-26T04:29:17.931Z,21.30
2022-08-26T04:31:44.872Z,21.20
2022-08-26T04:34:11.443Z,21.30
2022-08-26T04:36:41.018Z,21.30
2022-08-26T04:39:11.910Z,21.30
2022-08-26T04:41:39.319Z,21.30
2022-08-26T04:44:07.095Z,21.20
2022-08-26T04:46:33.841Z,21.20
2022-08-26T04:49:00.437Z,21.30
2022-08-26T04:51:29.890Z,21.10
2022-08-26T04:53:57.489Z,21.10
2022-08-26T04:56:25.667Z,21.10
2022-08-26T04:58:52.578Z,21.10
2022-08-26T05:01:19.788Z,21.10
2022-08-26T05:03:47.000Z,21.20
2022-08-26T05:06:13.819Z,21.10
2022-08-26T05:08:40.957Z,21.00
2022-08-26T05:11:07.950Z,21.10
2022-08-26T05:13:38.893Z,21.10
2022-08-26T05:16:07.669Z,21.00
2022-08-26T05:18:35.086Z,21.00
2022-08-26T05:21:02.713Z,21.20
2022-08-26T05:23:31.913Z,21.30
2022-08-26T05:26:00.565Z,21.20
2022-08-26T05:28:28.452Z,21.20
2022-08-26T05:30:55.539Z,21.20
2022-08-26T05:33:22.781Z,21.00
2022-08-26T05:35:49.332Z,21.30
2022-08-26T05:38:16.778Z,21.30
2022-08-26T05:40:44.678Z,21.30
2022-08-26T05:43:13.216Z,21.20
2022-08-26T05:45:45.275Z,21.40
2022-08-26T05:48:13.696Z,21.20
2022-08-26T05:50:45.553Z,21.30
2022-08-26T05:53:13.612Z,21.30
2022-08-26T05:55:43.960Z,21.20
2022-08-26T05:58:11.245Z,21.20
2022-08-26T06:00:38.338Z,21.10
2022-08-26T06:03:04.997Z,21.10
2022-08-26T06:05:35.309Z,21.10
2022-08-26T06:08:11.143Z,21.00
2022-08-26T06:10:52.599Z,21.20
2022-08-26T06:13:24.065Z,21.00
2022-08-26T06:15:51.276Z,21.20
2022-08-26T06:18:23.103Z,21.30
2022-08-26T06:20:56.974Z,21.30
2022-08-26T06:23:43.816Z,21.30
2022-08-26T06:26:11.026Z,21.20
2022-08-26T06:28:37.786Z,21.10
2022-08-26T06:31:05.962Z,21.10
2022-08-26T06:33:33.171Z,21.10
2022-08-26T06:36:00.987Z,21.10
2022-08-26T06:38:27.837Z,21.20
2022-08-26T06:40:59.666Z,21.20
2022-08-26T06:43:27.410Z,21.30
2022-08-26T06:46:02.904Z,21.40
2022-08-26T06:48:31.835Z,21.30
2022-08-26T06:51:02.998Z,21.30
2022-08-26T06:53:29.534Z,21.40
2022-08-26T06:55:56.134Z,21.40
2022-08-26T06:58:23.276Z,21.40
2022-08-26T07:00:51.119Z,21.30
2022-08-26T07:03:18.254Z,21.30
2022-08-26T07:05:44.859Z,21.40
2022-08-26T07:08:11.995Z,21.40
2022-08-26T07:10:38.773Z,21.50
2022-08-26T07:13:07.182Z,21.50
2022-08-26T07:15:35.998Z,21.50
2022-08-26T07:18:02.975Z,21.50
2022-08-26T07:20:29.621Z,21.40
2022-08-26T07:22:58.744Z,21.40
2022-08-26T07:25:25.393Z,21.30
2022-08-26T07:27:53.879Z,21.40
2022-08-26T07:30:21.172Z,21.30
2022-08-26T07:32:48.192Z,21.30
2022-08-26T07:35:14.719Z,21.30
2022-08-26T07:37:42.294Z,21.40
2022-08-26T07:40:09.443Z,21.40
2022-08-26T07:42:36.029Z,21.30
2022-08-26T07:45:02.625Z,21.40
2022-08-26T07:47:29.315Z,21.20
2022-08-26T07:49:56.571Z,21.30
2022-08-26T07:52:26.702Z,21.40
2022-08-26T07:54:54.567Z,21.30
2022-08-26T07:57:21.105Z,21.40
2022-08-26T07:59:47.633Z,21.50
2022-08-26T08:02:14.263Z,21.50
2022-08-26T08:04:40.911Z,21.70
2022-08-26T08:07:07.596Z,21.60
2022-08-26T08:09:38.259Z,21.60
2022-08-26T08:12:07.338Z,21.50
2022-08-26T08:14:36.388Z,21.60
2022-08-26T08:17:04.137Z,21.50
2022-08-26T08:19:36.951Z,21.70
2022-08-26T08:22:17.316Z,21.60
2022-08-26T08:24:44.674Z,21.50
2022-08-26T08:27:11.194Z,21.30
2022-08-26T08:29:38.593Z,21.30
2022-08-26T08:32:05.569Z,21.40
2022-08-26T08:34:38.223Z,21.40
2022-08-26T08:37:08.660Z,21.40
2022-08-26T08:39:37.078Z,21.50
2022-08-26T08:42:07.696Z,21.60
2022-08-26T08:44:36.810Z,21.70
2022-08-26T08:47:05.980Z,21.70
2022-08-26T08:49:33.506Z,21.70
2022-08-26T08:52:18.843Z,21.50
2022-08-26T08:54:46.447Z,21.30
2022-08-26T08:57:17.295Z,21.40
2022-08-26T08:59:56.140Z,21.40
2022-08-26T09:02:35.685Z,21.40
2022-08-26T09:05:07.142Z,21.40
2022-08-26T09:07:38.900Z,21.30
2022-08-26T09:10:24.402Z,21.20
2022-08-26T09:12:52.016Z,21.40
2022-08-26T09:15:21.469Z,21.50
2022-08-26T09:18:06.558Z,21.30
2022-08-26T09:20:51.916Z,21.50
2022-08-26T09:23:19.062Z,21.70
2022-08-26T09:28:26.218Z,21.80
2022-08-26T09:31:11.692Z,21.80
2022-08-26T09:33:40.023Z,21.60
2022-08-26T09:36:12.718Z,21.50
2022-08-26T09:38:39.302Z,21.60
2022-08-26T09:41:18.864Z,21.60
2022-08-26T09:44:06.190Z,21.60
2022-08-26T09:46:32.914Z,21.70
2022-08-26T09:49:20.595Z,21.80
2022-08-26T09:51:50.150Z,21.90
2022-08-26T09:54:30.439Z,21.90
2022-08-26T09:57:10.654Z,22.00
2022-08-26T09:59:37.983Z,22.00
2022-08-26T10:02:23.139Z,22.00
2022-08-26T10:04:51.776Z,22.20
2022-08-26T10:07:34.631Z,22.30
2022-08-26T10:10:04.162Z,22.30
2022-08-26T10:12:33.584Z,22.20
2022-08-26T10:15:03.426Z,22.20
2022-08-26T10:17:35.955Z,21.80
2022-08-26T10:20:09.841Z,21.90
2022-08-26T10:23:02.024Z,22.00
2022-08-26T10:25:32.608Z,21.90
2022-08-26T10:28:08.262Z,22.00
2022-08-26T10:30:45.822Z,22.00
2022-08-26T10:33:14.903Z,21.90
2022-08-26T10:35:48.275Z,22.00
2022-08-26T10:38:16.878Z,21.90
2022-08-26T10:40:43.462Z,22.00
2022-08-26T10:43:21.382Z,22.10
2022-08-26T10:45:52.901Z,22.30
2022-08-26T10:48:35.489Z,22.40
2022-08-26T10:51:03.990Z,22.50
2022-08-26T10:53:36.851Z,22.40
2022-08-26T10:56:22.151Z,22.40
2022-08-26T10:59:12.499Z,22.50
2022-08-26T11:01:57.838Z,22.70
2022-08-26T11:04:43.258Z,22.70
2022-08-26T11:07:31.703Z,22.70
2022-08-26T11:10:16.847Z,23.00
2022-08-26T11:12:45.272Z,23.00
2022-08-26T11:15:24.631Z,23.00
2022-08-26T11:17:51.497Z,23.10
2022-08-26T11:20:34.012Z,23.30
2022-08-26T11:23:27.462Z,23.10
2022-08-26T11:26:00.138Z,22.80
2022-08-26T11:28:37.224Z,22.90
2022-08-26T11:31:05.751Z,22.60
2022-08-26T11:33:50.998Z,22.70
2022-08-26T11:36:32.909Z,22.80
2022-08-26T11:39:01.280Z,23.10
2022-08-26T11:41:29.898Z,22.90
2022-08-26T11:43:57.535Z,22.80
2022-08-26T11:46:28.584Z,23.00
2022-08-26T11:49:01.909Z,23.10
2022-08-26T11:51:29.198Z,22.80
2022-08-26T11:54:08.415Z,22.90
2022-08-26T11:56:35.404Z,22.60
2022-08-26T11:59:03.531Z,22.80
2022-08-26T12:01:35.621Z,22.90
2022-08-26T12:04:04.343Z,22.90
2022-08-26T12:06:34.034Z,23.00
2022-08-26T12:09:02.559Z,23.00
2022-08-26T12:11:33.335Z,22.70
2022-08-26T12:14:00.971Z,22.80
2022-08-26T12:16:28.626Z,22.50
2022-08-26T12:18:56.556Z,22.40
2022-08-26T12:21:31.544Z,22.20
2022-08-26T12:24:03.065Z,22.10
2022-08-26T12:26:31.035Z,22.10
2022-08-26T12:29:10.796Z,22.10
2022-08-26T12:31:47.875Z,22.20
2022-08-26T12:34:18.665Z,22.20
2022-08-26T12:36:56.168Z,22.40
2022-08-26T12:39:29.730Z,22.40
2022-08-26T12:41:57.718Z,22.50
2022-08-26T12:44:31.953Z,22.60
2022-08-26T12:47:08.086Z,22.70
2022-08-26T12:49:36.330Z,22.60
2022-08-26T12:52:04.052Z,22.50
2022-08-26T12:54:53.579Z,22.30
2022-08-26T12:57:26.206Z,22.30
2022-08-26T12:59:52.724Z,22.20
2022-08-26T13:02:35.398Z,22.30
2022-08-26T13:05:02.406Z,22.20
2022-08-26T13:07:28.959Z,22.20
2022-08-26T13:09:56.717Z,22.00
2022-08-26T13:12:24.824Z,22.20
2022-08-26T13:14:51.538Z,22.00
2022-08-26T13:17:18.062Z,22.00
2022-08-26T13:19:44.578Z,22.20
2022-08-26T13:22:12.159Z,22.30
2022-08-26T13:24:43.190Z,22.50
2022-08-26T13:27:13.943Z,22.60
2022-08-26T13:29:41.299Z,22.80
2022-08-26T13:32:08.518Z,22.70
2022-08-26T13:34:36.636Z,22.70
2022-08-26T13:37:03.334Z,22.70
2022-08-26T13:39:30.251Z,22.70
2022-08-26T13:41:56.820Z,22.80
2022-08-26T13:44:23.659Z,22.90
2022-08-26T13:46:50.738Z,22.90
2022-08-26T13:49:17.250Z,22.50
2022-08-26T13:51:43.776Z,22.80
2022-08-26T13:54:10.282Z,22.60
2022-08-26T13:56:37.369Z,22.70
2022-08-26T13:59:06.634Z,22.50
2022-08-26T14:01:33.998Z,22.70
2022-08-26T14:04:00.904Z,22.70
2022-08-26T14:06:27.417Z,22.60
2022-08-26T14:08:53.948Z,22.70
2022-08-26T14:11:21.272Z,22.40
2022-08-26T14:13:47.864Z,22.50
2022-08-26T14:16:34.276Z,22.80
2022-08-26T14:19:01.371Z,22.70
2022-08-26T14:21:29.786Z,22.50
2022-08-26T14:24:00.727Z,22.40
2022-08-26T14:26:29.278Z,22.60
2022-08-26T14:28:57.398Z,22.50
2022-08-26T14:31:24.145Z,22.60
2022-08-26T14:33:50.731Z,22.70
2022-08-26T14:36:29.460Z,22.60
2022-08-26T14:38:56.775Z,22.70
2022-08-26T14:41:25.269Z,22.80
2022-08-26T14:43:57.958Z,22.60
2022-08-26T14:46:28.590Z,22.60
2022-08-26T14:49:01.648Z,22.70
2022-08-26T14:51:29.072Z,22.30
2022-08-26T14:54:13.726Z,22.40
2022-08-26T14:56:51.439Z,22.40
2022-08-26T14:59:20.624Z,22.50
2022-08-26T15:01:47.674Z,22.50
2022-08-26T15:04:14.408Z,22.50
2022-08-26T15:06:41.199Z,22.40
2022-08-26T15:09:07.877Z,22.30
2022-08-26T15:11:34.547Z,22.20
2022-08-26T15:14:01.136Z,22.10
2022-08-26T15:16:29.005Z,22.10
2022-08-26T15:18:55.962Z,22.10
2022-08-26T15:21:22.968Z,22.00
2022-08-26T15:23:50.554Z,22.20
2022-08-26T15:26:18.285Z,22.30
2022-08-26T15:28:44.874Z,22.30
2022-08-26T15:31:11.493Z,22.30
2022-08-26T15:33:39.149Z,22.40
2022-08-26T15:36:06.994Z,22.40
2022-08-26T15:38:37.087Z,22.40
2022-08-26T15:41:04.547Z,22.50
2022-08-26T15:43:31.271Z,22.40
2022-08-26T15:45:57.935Z,22.30
2022-08-26T15:48:24.774Z,22.20
2022-08-26T15:50:56.722Z,22.10
2022-08-26T15:53:24.342Z,21.90
2022-08-26T15:55:53.133Z,21.90
2022-08-26T15:58:20.588Z,21.80
2022-08-26T16:00:47.116Z,21.80
2022-08-26T16:03:13.632Z,21.80
2022-08-26T16:05:41.037Z,21.70
2022-08-26T16:08:08.180Z,21.60
2022-08-26T16:10:37.646Z,21.60
2022-08-26T16:13:04.523Z,21.70
2022-08-26T16:15:34.493Z,21.40
2022-08-26T16:18:02.305Z,21.60
2022-08-26T16:20:29.396Z,21.90
2022-08-26T16:22:55.963Z,21.90
2022-08-26T16:25:22.512Z,21.90
2022-08-26T16:27:49.084Z,22.00
2022-08-26T16:30:16.552Z,22.00
2022-08-26T16:32:43.153Z,21.90
2022-08-26T16:35:09.761Z,21.80
2022-08-26T16:37:37.750Z,21.90
2022-08-26T16:40:06.809Z,22.00
2022-08-26T16:42:33.383Z,21.90
2022-08-26T16:45:00.093Z,21.80
2022-08-26T16:47:27.005Z,21.80
2022-08-26T16:49:53.599Z,21.70
2022-08-26T16:52:21.487Z,21.70
2022-08-26T16:54:52.386Z,21.60
2022-08-26T16:57:19.243Z,21.50
2022-08-26T16:59:46.135Z,21.40
2022-08-26T17:02:13.043Z,21.40
2022-08-26T17:04:39.695Z,21.50
2022-08-26T17:07:06.544Z,21.60
2022-08-26T17:09:33.974Z,21.60
2022-08-26T17:12:00.552Z,21.60
2022-08-26T17:14:27.078Z,21.70
2022-08-26T17:16:55.966Z,21.80
2022-08-26T17:19:22.570Z,21.80
2022-08-26T17:21:49.332Z,21.80
2022-08-26T17:24:16.355Z,21.80
2022-08-26T17:26:44.332Z,21.80
2022-08-26T17:29:15.055Z,21.70
2022-08-26T17:31:41.577Z,21.70
2022-08-26T17:34:10.113Z,21.70
2022-08-26T17:36:36.667Z,21.80
2022-08-26T17:39:03.447Z,21.70
2022-08-26T17:41:30.176Z,21.80
2022-08-26T17:43:57.095Z,21.80
2022-08-26T17:46:24.087Z,21.80
2022-08-26T17:48:50.712Z,21.80
2022-08-26T17:51:19.180Z,21.70
2022-08-26T17:53:46.117Z,21.70
2022-08-26T17:56:14.333Z,21.70
2022-08-26T17:58:50.975Z,21.70
2022-08-26T18:01:18.614Z,21.60
2022-08-26T18:03:45.298Z,21.60
2022-08-26T18:06:12.885Z,21.60
2022-08-26T18:08:39.655Z,21.60
2022-08-26T18:11:10.316Z,21.50
2022-08-26T18:13:37.406Z,21.50
2022-08-26T18:16:05.429Z,21.50
2022-08-26T18:18:32.371Z,21.60
2022-08-26T18:21:01.523Z,21.60
2022-08-26T18:23:28.727Z,21.50
2022-08-26T18:25:57.963Z,21.40
2022-08-26T18:28:24.489Z,21.40
2022-08-26T18:30:51.608Z,21.40
2022-08-26T18:33:19.248Z,21.30
2022-08-26T18:35:45.803Z,21.40
2022-08-26T18:38:15.216Z,21.30
2022-08-26T18:40:43.667Z,21.30
2022-08-26T18:43:10.645Z,21.30
2022-08-26T18:45:37.376Z,21.30
2022-08-26T18:48:04.445Z,21.20
2022-08-26T18:50:30.973Z,21.30
2022-08-26T18:52:57.556Z,21.20
2022-08-26T18:55:24.189Z,21.20
2022-08-26T18:57:50.721Z,21.10
2022-08-26T19:00:17.568Z,21.20
2022-08-26T19:02:51.751Z,21.10
2022-08-26T19:05:18.899Z,21.10
2022-08-26T19:07:45.979Z,21.10
2022-08-26T19:10:14.539Z,21.10
2022-08-26T19:12:41.061Z,21.10
2022-08-26T19:15:07.840Z,21.10
2022-08-26T19:17:34.408Z,21.10
2022-08-26T19:20:00.974Z,21.10
2022-08-26T19:22:27.597Z,21.00
2022-08-26T19:24:54.119Z,21.00
2022-08-26T19:27:22.133Z,21.00
2022-08-26T19:29:48.707Z,21.00
2022-08-26T19:32:16.882Z,21.00
2022-08-26T19:34:44.316Z,20.90
2022-08-26T19:37:11.219Z,20.80
2022-08-26T19:39:37.811Z,20.80
2022-08-26T19:42:04.531Z,20.70
2022-08-26T19:44:51.348Z,20.80
2022-08-26T19:47:17.910Z,20.70
2022-08-26T19:49:44.702Z,20.60
2022-08-26T19:52:11.720Z,20.60
2022-08-26T19:54:38.909Z,20.60
2022-08-26T19:57:05.509Z,20.60
2022-08-26T19:59:33.010Z,20.60
2022-08-26T20:02:01.010Z,20.50
2022-08-26T20:04:29.563Z,20.50
2022-08-26T20:06:58.742Z,20.50
2022-08-26T20:09:27.818Z,20.40
2022-08-26T20:11:56.719Z,20.40
2022-08-26T20:14:23.927Z,20.30
2022-08-26T20:16:50.481Z,20.30
2022-08-26T20:19:37.537Z,20.20
2022-08-26T20:22:04.567Z,20.20
2022-08-26T20:24:32.294Z,20.20
2022-08-26T20:26:59.008Z,20.10
2022-08-26T20:29:25.654Z,19.80
2022-08-26T20:31:53.123Z,19.90
2022-08-26T20:34:20.788Z,19.70
2022-08-26T20:36:48.031Z,19.70
2022-08-26T20:39:15.523Z,19.70
2022-08-26T20:41:43.080Z,19.80
2022-08-26T20:44:09.827Z,19.80
2022-08-26T20:46:36.948Z,19.90
2022-08-26T20:49:03.930Z,20.00
2022-08-26T20:51:32.564Z,19.90
2022-08-26T20:53:59.176Z,20.00
2022-08-26T20:56:25.726Z,19.80
2022-08-26T20:58:53.933Z,19.80
2022-08-26T21:01:25.190Z,19.80
2022-08-26T21:03:52.952Z,19.90
2022-08-26T21:06:19.720Z,19.80
2022-08-26T21:08:48.093Z,19.70
2022-08-26T21:11:15.566Z,19.80
2022-08-26T21:14:03.467Z,19.70
2022-08-26T21:16:28.958Z,19.60
2022-08-26T21:18:55.627Z,19.70
2022-08-26T21:21:24.980Z,19.80
2022-08-26T21:23:51.915Z,19.70
2022-08-26T21:26:18.752Z,19.70
2022-08-26T21:28:46.147Z,19.70
2022-08-26T21:31:14.487Z,19.70
2022-08-26T21:33:41.539Z,19.70
2022-08-26T21:36:11.004Z,19.70
2022-08-26T21:38:38.239Z,19.70
2022-08-26T21:41:07.022Z,19.70
2022-08-26T21:43:35.557Z,19.70
2022-08-26T21:46:03.697Z,19.80
2022-08-26T21:48:33.214Z,19.80
2022-08-26T21:51:03.386Z,19.90
2022-08-26T21:53:29.878Z,19.90
2022-08-26T21:55:56.423Z,19.90
2022-08-26T21:58:23.239Z,19.90
2022-08-26T22:00:50.742Z,19.90
2022-08-26T22:03:17.395Z,19.90
2022-08-26T22:05:45.014Z,20.00
2022-08-26T22:08:11.851Z,19.90
2022-08-26T22:10:39.585Z,20.00
2022-08-26T22:13:06.391Z,20.00
2022-08-26T22:15:35.307Z,20.00
2022-08-26T22:18:06.166Z,20.00
2022-08-26T22:20:32.699Z,20.10
2022-08-26T22:22:59.229Z,20.00
2022-08-26T22:25:25.781Z,20.00
2022-08-26T22:27:52.414Z,20.00
2022-08-26T22:30:19.853Z,20.00
2022-08-26T22:32:46.744Z,20.10
2022-08-26T22:35:29.311Z,20.00
2022-08-26T22:37:57.169Z,20.00
2022-08-26T22:40:24.203Z,20.10
2022-08-26T22:42:56.902Z,20.10
2022-08-26T22:45:27.197Z,20.10
2022-08-26T22:47:54.008Z,20.10
2022-08-26T22:50:20.575Z,20.10
2022-08-26T22:52:47.172Z,20.10
2022-08-26T22:55:14.166Z,20.10
2022-08-26T22:57:41.925Z,20.10
2022-08-26T23:00:11.276Z,20.10
2022-08-26T23:02:38.335Z,20.10
2022-08-26T23:05:05.714Z,20.10
2022-08-26T23:07:32.330Z,20.10
2022-08-26T23:09:58.856Z,20.10
2022-08-26T23:12:26.297Z,20.10
2022-08-26T23:14:52.874Z,20.10
2022-08-26T23:17:19.499Z,20.10
2022-08-26T23:19:46.033Z,20.10
2022-08-26T23:22:12.748Z,20.10
2022-08-26T23:24:39.309Z,20.00
2022-08-26T23:27:05.948Z,20.00
2022-08-26T23:29:32.502Z,20.00
2022-08-26T23:31:59.076Z,20.10
2022-08-26T23:34:44.369Z,20.00
2022-08-26T23:37:12.599Z,20.10
2022-08-26T23:39:39.129Z,20.00
2022-08-26T23:42:06.523Z,20.00
2022-08-26T23:44:33.454Z,19.90
2022-08-26T23:46:59.982Z,19.90
2022-08-26T23:49:26.623Z,19.90
2022-08-26T23:52:12.056Z,19.90
2022-08-26T23:54:39.202Z,19.90
2022-08-26T23:57:06.412Z,19.90
2022-08-26T23:59:33.804Z,20.00
